Portada
METAR-TAF:

METAR-TAF

Aeropuertos :

Harbin, China

Aeropuerto Internacional de Harbin

latitud: 45-45N, longitud: 126-46E, altitud: 143 m

Observación

El informe se hizo hace 1 hora y 13 minutos, a las 03:00 UTC
Viento 6 kt del sur-suroeste, variando entre sur-sureste y suroeste
Temperatura 20°C
Humedad 40%
Presión 1013 hPa
Visibilidad 10 km o más
sin nubes por debajo de 1500 m y sin presencia de cumulonimbus.

METAR: ZYHB 250300Z 20003MPS 150V220 CAVOK 20/06 Q1013 NOSIG

Hora: 12:13 (04:13 UTC)

Pronóstico

El informe se hizo hace 9 horas y 5 minutos, a las 19:08 UTC
Pronóstico válido del 25 a las 00 UTC al 25 a las 24 UTC
Viento 8 kt del suroeste
Visibilidad: 6000 m
Nubes dispersas a una altura de 3000 ft

TAF: ZYHB 241908Z 2500/2524 22004MPS 6000 SCT030 TX23/2506Z TN08/2521Z

Observaciones y pronósticos meteorológicos de más de 4000 aeropuertos (mensajes METAR y TAF).

Los puntos amarillos y rojos representan las estaciones disponibles.

Ponga el ratón en el punto deseado para ver el nombre de la estación.

Haga clic para ver las observaciones y los pronósticos meteorológicos.

Para cambiar el mapa : haga clic en los botones verdes con una cruz de color negro para hacer un zoom, en el botón verde con un guión para alejar o en las flechas verdes para mapas adyacentes.


METAR-TAF: